sensor_id;sensor_type;location;lat;lon;timestamp;temperature;humidity
5286;DHT22;2665;53.112;7.358;2023-06-22T08:53:28;23.50;99.90
5286;DHT22;2665;53.112;7.358;2023-06-22T08:55:54;23.40;99.90
5286;DHT22;2665;53.112;7.358;2023-06-22T08:58:19;23.60;99.90
5286;DHT22;2665;53.112;7.358;2023-06-22T09:00:46;23.60;99.90
5286;DHT22;2665;53.112;7.358;2023-06-22T09:03:13;23.60;99.90
5286;DHT22;2665;53.112;7.358;2023-06-22T09:05:38;23.70;99.90
5286;DHT22;2665;53.112;7.358;2023-06-22T09:08:04;23.80;99.90
5286;DHT22;2665;53.112;7.358;2023-06-22T09:10:30;23.90;99.90
5286;DHT22;2665;53.112;7.358;2023-06-22T09:12:57;24.00;99.90
5286;DHT22;2665;53.112;7.358;2023-06-22T09:15:22;24.10;99.90
5286;DHT22;2665;53.112;7.358;2023-06-22T09:17:48;24.20;99.90
5286;DHT22;2665;53.112;7.358;2023-06-22T09:20:14;24.30;99.90
5286;DHT22;2665;53.112;7.358;2023-06-22T09:22:40;24.40;99.90
5286;DHT22;2665;53.112;7.358;2023-06-22T09:25:06;24.50;1.00
5286;DHT22;2665;53.112;7.358;2023-06-22T09:27:32;24.60;1.00
5286;DHT22;2665;53.112;7.358;2023-06-22T09:29:58;24.60;1.00
5286;DHT22;2665;53.112;7.358;2023-06-22T09:32:24;24.70;1.00
5286;DHT22;2665;53.112;7.358;2023-06-22T09:34:50;24.90;1.00
5286;DHT22;2665;53.112;7.358;2023-06-22T09:37:16;24.90;1.00
5286;DHT22;2665;53.112;7.358;2023-06-22T09:39:42;25.10;1.00
5286;DHT22;2665;53.112;7.358;2023-06-22T09:42:07;25.10;1.00
5286;DHT22;2665;53.112;7.358;2023-06-22T09:44:33;25.20;1.00
5286;DHT22;2665;53.112;7.358;2023-06-22T09:46:59;25.30;1.00
5286;DHT22;2665;53.112;7.358;2023-06-22T09:49:25;25.40;1.00
5286;DHT22;2665;53.112;7.358;2023-06-22T09:51:51;25.50;1.00
5286;DHT22;2665;53.112;7.358;2023-06-22T09:54:17;25.70;1.00
5286;DHT22;2665;53.112;7.358;2023-06-22T09:56:44;25.80;1.00
5286;DHT22;2665;53.112;7.358;2023-06-22T09:59:10;25.90;1.00
5286;DHT22;2665;53.112;7.358;2023-06-22T10:01:35;26.00;1.00
5286;DHT22;2665;53.112;7.358;2023-06-22T10:04:02;26.00;1.00
5286;DHT22;2665;53.112;7.358;2023-06-22T10:06:28;26.10;1.00
5286;DHT22;2665;53.112;7.358;2023-06-22T10:08:53;26.10;1.00
5286;DHT22;2665;53.112;7.358;2023-06-22T10:11:19;26.20;1.00
5286;DHT22;2665;53.112;7.358;2023-06-22T10:13:44;26.20;1.00
5286;DHT22;2665;53.112;7.358;2023-06-22T10:16:10;26.40;1.00
5286;DHT22;2665;53.112;7.358;2023-06-22T10:18:36;26.50;1.00
5286;DHT22;2665;53.112;7.358;2023-06-22T10:21:02;26.60;1.00
5286;DHT22;2665;53.112;7.358;2023-06-22T10:23:27;26.70;1.00
5286;DHT22;2665;53.112;7.358;2023-06-22T10:25:53;26.80;1.00
5286;DHT22;2665;53.112;7.358;2023-06-22T10:28:18;26.90;1.00
5286;DHT22;2665;53.112;7.358;2023-06-22T10:30:44;27.10;1.00
5286;DHT22;2665;53.112;7.358;2023-06-22T10:33:11;27.20;1.00
5286;DHT22;2665;53.112;7.358;2023-06-22T10:35:37;27.30;1.00
5286;DHT22;2665;53.112;7.358;2023-06-22T10:38:03;27.50;1.00
5286;DHT22;2665;53.112;7.358;2023-06-22T10:40:29;27.60;1.00
5286;DHT22;2665;53.112;7.358;2023-06-22T10:42:55;27.50;1.00
5286;DHT22;2665;53.112;7.358;2023-06-22T10:45:21;27.50;1.00
5286;DHT22;2665;53.112;7.358;2023-06-22T10:47:46;27.70;1.00
5286;DHT22;2665;53.112;7.358;2023-06-22T10:50:12;27.80;1.00
5286;DHT22;2665;53.112;7.358;2023-06-22T10:52:38;27.90;1.00
5286;DHT22;2665;53.112;7.358;2023-06-22T10:55:04;28.10;1.00
5286;DHT22;2665;53.112;7.358;2023-06-22T10:57:30;28.00;1.00
5286;DHT22;2665;53.112;7.358;2023-06-22T10:59:56;28.10;1.00
5286;DHT22;2665;53.112;7.358;2023-06-22T11:02:23;28.30;1.00
5286;DHT22;2665;53.112;7.358;2023-06-22T11:04:49;28.50;1.00
5286;DHT22;2665;53.112;7.358;2023-06-22T11:07:15;28.50;1.00
5286;DHT22;2665;53.112;7.358;2023-06-22T11:09:43;28.50;1.00
5286;DHT22;2665;53.112;7.358;2023-06-22T11:12:09;28.60;1.00
5286;DHT22;2665;53.112;7.358;2023-06-22T11:14:34;28.40;1.00
5286;DHT22;2665;53.112;7.358;2023-06-22T11:17:00;28.40;1.00
5286;DHT22;2665;53.112;7.358;2023-06-22T11:19:26;28.40;1.00
5286;DHT22;2665;53.112;7.358;2023-06-22T11:21:51;28.80;1.00
5286;DHT22;2665;53.112;7.358;2023-06-22T11:24:17;29.40;1.00
5286;DHT22;2665;53.112;7.358;2023-06-22T11:26:43;29.90;1.00
5286;DHT22;2665;53.112;7.358;2023-06-22T11:29:09;30.90;1.00
5286;DHT22;2665;53.112;7.358;2023-06-22T11:31:35;31.80;1.00
5286;DHT22;2665;53.112;7.358;2023-06-22T11:34:01;32.60;1.00
5286;DHT22;2665;53.112;7.358;2023-06-22T11:36:27;33.20;1.00
5286;DHT22;2665;53.112;7.358;2023-06-22T11:38:53;33.50;1.00
5286;DHT22;2665;53.112;7.358;2023-06-22T11:41:18;33.50;1.00
5286;DHT22;2665;53.112;7.358;2023-06-22T11:43:44;33.70;1.00
5286;DHT22;2665;53.112;7.358;2023-06-22T11:46:10;33.80;1.00
5286;DHT22;2665;53.112;7.358;2023-06-22T11:48:36;33.80;1.00
5286;DHT22;2665;53.112;7.358;2023-06-22T11:51:02;34.10;1.00
5286;DHT22;2665;53.112;7.358;2023-06-22T11:53:28;33.80;1.00
5286;DHT22;2665;53.112;7.358;2023-06-22T11:55:54;33.40;1.00
5286;DHT22;2665;53.112;7.358;2023-06-22T11:58:21;33.10;1.00
5286;DHT22;2665;53.112;7.358;2023-06-22T12:00:46;33.10;1.00
5286;DHT22;2665;53.112;7.358;2023-06-22T12:03:12;32.90;1.00
5286;DHT22;2665;53.112;7.358;2023-06-22T12:05:38;32.70;1.00
5286;DHT22;2665;53.112;7.358;2023-06-22T12:08:04;32.20;1.00
5286;DHT22;2665;53.112;7.358;2023-06-22T12:15:26;30.80;1.00
5286;DHT22;2665;53.112;7.358;2023-06-22T12:17:51;30.70;1.00
5286;DHT22;2665;53.112;7.358;2023-06-22T12:20:17;30.70;1.00
5286;DHT22;2665;53.112;7.358;2023-06-22T12:22:43;30.50;1.00
5286;DHT22;2665;53.112;7.358;2023-06-22T12:25:09;30.30;1.00
5286;DHT22;2665;53.112;7.358;2023-06-22T12:27:35;30.10;1.00
5286;DHT22;2665;53.112;7.358;2023-06-22T12:30:01;30.10;1.00
5286;DHT22;2665;53.112;7.358;2023-06-22T12:32:27;30.00;1.00
5286;DHT22;2665;53.112;7.358;2023-06-22T12:34:53;29.80;1.00
5286;DHT22;2665;53.112;7.358;2023-06-22T12:37:19;30.00;1.00
5286;DHT22;2665;53.112;7.358;2023-06-22T12:39:44;30.50;1.00
5286;DHT22;2665;53.112;7.358;2023-06-22T12:42:10;30.70;1.00
5286;DHT22;2665;53.112;7.358;2023-06-22T12:44:38;30.80;1.00
5286;DHT22;2665;53.112;7.358;2023-06-22T12:47:05;31.10;1.00
5286;DHT22;2665;53.112;7.358;2023-06-22T12:49:30;31.30;1.00
5286;DHT22;2665;53.112;7.358;2023-06-22T12:51:56;31.20;1.00
5286;DHT22;2665;53.112;7.358;2023-06-22T12:54:21;31.30;1.00
5286;DHT22;2665;53.112;7.358;2023-06-22T12:56:47;31.20;1.00
5286;DHT22;2665;53.112;7.358;2023-06-22T12:59:13;31.30;1.00
5286;DHT22;2665;53.112;7.358;2023-06-22T13:01:38;31.00;1.00
5286;DHT22;2665;53.112;7.358;2023-06-22T13:04:04;30.70;1.00
5286;DHT22;2665;53.112;7.358;2023-06-22T13:06:30;30.60;1.00
5286;DHT22;2665;53.112;7.358;2023-06-22T13:08:56;30.80;1.00
5286;DHT22;2665;53.112;7.358;2023-06-22T13:11:21;30.90;1.00
5286;DHT22;2665;53.112;7.358;2023-06-22T13:13:47;30.80;1.00
5286;DHT22;2665;53.112;7.358;2023-06-22T13:16:13;30.40;1.00
5286;DHT22;2665;53.112;7.358;2023-06-22T13:18:38;30.10;1.00
5286;DHT22;2665;53.112;7.358;2023-06-22T13:21:04;30.10;1.00
5286;DHT22;2665;53.112;7.358;2023-06-22T13:23:30;30.00;1.00
5286;DHT22;2665;53.112;7.358;2023-06-22T13:25:57;29.80;1.00
5286;DHT22;2665;53.112;7.358;2023-06-22T13:28:23;29.70;1.00
5286;DHT22;2665;53.112;7.358;2023-06-22T13:30:48;29.40;1.00
5286;DHT22;2665;53.112;7.358;2023-06-22T13:33:14;29.10;1.00
5286;DHT22;2665;53.112;7.358;2023-06-22T13:35:40;28.70;1.00
5286;DHT22;2665;53.112;7.358;2023-06-22T13:38:08;28.40;1.00
5286;DHT22;2665;53.112;7.358;2023-06-22T13:40:34;28.10;1.00
5286;DHT22;2665;53.112;7.358;2023-06-22T13:43:00;27.70;1.00
5286;DHT22;2665;53.112;7.358;2023-06-22T13:45:26;27.50;1.00
5286;DHT22;2665;53.112;7.358;2023-06-22T13:47:51;27.30;1.00
5286;DHT22;2665;53.112;7.358;2023-06-22T13:50:17;27.10;1.00
5286;DHT22;2665;53.112;7.358;2023-06-22T13:52:43;26.90;1.00
5286;DHT22;2665;53.112;7.358;2023-06-22T13:55:09;26.60;1.00
5286;DHT22;2665;53.112;7.358;2023-06-22T13:57:35;26.40;1.00
5286;DHT22;2665;53.112;7.358;2023-06-22T14:00:01;26.30;1.00
5286;DHT22;2665;53.112;7.358;2023-06-22T14:02:28;26.20;1.00
5286;DHT22;2665;53.112;7.358;2023-06-22T14:04:53;26.00;1.00
5286;DHT22;2665;53.112;7.358;2023-06-22T14:07:19;26.00;1.00
5286;DHT22;2665;53.112;7.358;2023-06-22T14:09:46;25.90;1.00
5286;DHT22;2665;53.112;7.358;2023-06-22T14:12:12;25.90;1.00
5286;DHT22;2665;53.112;7.358;2023-06-22T14:14:38;25.80;1.00
5286;DHT22;2665;53.112;7.358;2023-06-22T14:17:05;25.70;1.00
5286;DHT22;2665;53.112;7.358;2023-06-22T14:19:31;25.70;1.00
5286;DHT22;2665;53.112;7.358;2023-06-22T14:21:56;25.70;1.00
5286;DHT22;2665;53.112;7.358;2023-06-22T14:24:23;25.60;1.00
5286;DHT22;2665;53.112;7.358;2023-06-22T14:26:48;25.70;1.00
5286;DHT22;2665;53.112;7.358;2023-06-22T14:29:14;25.60;1.00
5286;DHT22;2665;53.112;7.358;2023-06-22T14:31:40;25.50;1.00
5286;DHT22;2665;53.112;7.358;2023-06-22T14:34:05;25.40;1.00
5286;DHT22;2665;53.112;7.358;2023-06-22T14:36:31;25.30;1.00
5286;DHT22;2665;53.112;7.358;2023-06-22T14:38:57;25.30;1.00
5286;DHT22;2665;53.112;7.358;2023-06-22T14:41:23;25.20;1.00
5286;DHT22;2665;53.112;7.358;2023-06-22T14:43:51;25.20;1.00
5286;DHT22;2665;53.112;7.358;2023-06-22T14:46:20;25.10;1.00
5286;DHT22;2665;53.112;7.358;2023-06-22T14:48:46;25.10;1.00
5286;DHT22;2665;53.112;7.358;2023-06-22T14:51:12;25.00;1.00
5286;DHT22;2665;53.112;7.358;2023-06-22T14:53:38;25.00;1.00
5286;DHT22;2665;53.112;7.358;2023-06-22T14:56:04;25.00;1.00
5286;DHT22;2665;53.112;7.358;2023-06-22T14:58:33;24.90;1.00
5286;DHT22;2665;53.112;7.358;2023-06-22T15:01:02;24.90;1.00
5286;DHT22;2665;53.112;7.358;2023-06-22T15:03:30;24.80;1.00
5286;DHT22;2665;53.112;7.358;2023-06-22T15:05:57;24.70;1.00
5286;DHT22;2665;53.112;7.358;2023-06-22T15:08:24;24.70;1.00
5286;DHT22;2665;53.112;7.358;2023-06-22T15:10:50;24.70;1.00
5286;DHT22;2665;53.112;7.358;2023-06-22T15:13:16;24.60;1.00
5286;DHT22;2665;53.112;7.358;2023-06-22T15:15:43;24.60;1.00
5286;DHT22;2665;53.112;7.358;2023-06-22T15:18:09;24.50;1.00
5286;DHT22;2665;53.112;7.358;2023-06-22T15:20:34;24.50;1.00
5286;DHT22;2665;53.112;7.358;2023-06-22T15:23:00;24.40;1.00
5286;DHT22;2665;53.112;7.358;2023-06-22T15:25:25;24.30;1.00
5286;DHT22;2665;53.112;7.358;2023-06-22T15:27:51;24.30;1.00
5286;DHT22;2665;53.112;7.358;2023-06-22T15:30:17;24.20;1.00
5286;DHT22;2665;53.112;7.358;2023-06-22T15:32:45;24.20;1.00
5286;DHT22;2665;53.112;7.358;2023-06-22T15:35:12;24.20;1.00
5286;DHT22;2665;53.112;7.358;2023-06-22T15:37:38;24.20;1.00
5286;DHT22;2665;53.112;7.358;2023-06-22T15:40:04;24.00;1.00
5286;DHT22;2665;53.112;7.358;2023-06-22T15:42:30;24.00;1.00
5286;DHT22;2665;53.112;7.358;2023-06-22T15:44:56;23.90;1.00
5286;DHT22;2665;53.112;7.358;2023-06-22T15:47:21;23.80;1.00
5286;DHT22;2665;53.112;7.358;2023-06-22T15:49:49;23.60;1.00
5286;DHT22;2665;53.112;7.358;2023-06-22T15:52:15;23.50;1.00
5286;DHT22;2665;53.112;7.358;2023-06-22T15:54:45;23.30;1.00
5286;DHT22;2665;53.112;7.358;2023-06-22T15:57:11;23.20;1.00
5286;DHT22;2665;53.112;7.358;2023-06-22T15:59:39;23.10;1.00
5286;DHT22;2665;53.112;7.358;2023-06-22T16:02:06;23.00;1.00
5286;DHT22;2665;53.112;7.358;2023-06-22T16:04:31;22.80;1.00
5286;DHT22;2665;53.112;7.358;2023-06-22T16:06:57;22.70;1.00
5286;DHT22;2665;53.112;7.358;2023-06-22T16:09:23;22.60;1.00
5286;DHT22;2665;53.112;7.358;2023-06-22T16:11:48;22.40;1.00
5286;DHT22;2665;53.112;7.358;2023-06-22T16:14:14;22.30;1.00
5286;DHT22;2665;53.112;7.358;2023-06-22T16:16:39;22.20;1.00
5286;DHT22;2665;53.112;7.358;2023-06-22T16:19:05;22.10;1.00
5286;DHT22;2665;53.112;7.358;2023-06-22T16:21:31;22.10;1.00
5286;DHT22;2665;53.112;7.358;2023-06-22T16:23:56;22.00;1.00
5286;DHT22;2665;53.112;7.358;2023-06-22T16:26:22;22.00;1.00
5286;DHT22;2665;53.112;7.358;2023-06-22T16:28:47;21.90;1.00
5286;DHT22;2665;53.112;7.358;2023-06-22T16:31:13;21.80;1.00
5286;DHT22;2665;53.112;7.358;2023-06-22T16:33:40;21.70;1.00
5286;DHT22;2665;53.112;7.358;2023-06-22T16:36:12;21.60;1.00
5286;DHT22;2665;53.112;7.358;2023-06-22T16:38:38;21.60;1.00
5286;DHT22;2665;53.112;7.358;2023-06-22T16:41:03;21.50;1.00
5286;DHT22;2665;53.112;7.358;2023-06-22T16:43:31;21.50;1.00
5286;DHT22;2665;53.112;7.358;2023-06-22T16:45:57;21.40;1.00
5286;DHT22;2665;53.112;7.358;2023-06-22T16:48:23;21.20;1.00
5286;DHT22;2665;53.112;7.358;2023-06-22T16:50:48;21.10;1.00
5286;DHT22;2665;53.112;7.358;2023-06-22T16:53:14;21.00;1.00
5286;DHT22;2665;53.112;7.358;2023-06-22T16:55:41;21.00;1.00
5286;DHT22;2665;53.112;7.358;2023-06-22T16:58:09;21.00;1.00
5286;DHT22;2665;53.112;7.358;2023-06-22T17:00:38;21.00;1.00
5286;DHT22;2665;53.112;7.358;2023-06-22T17:03:08;21.00;1.00
5286;DHT22;2665;53.112;7.358;2023-06-22T17:05:37;21.00;1.00
5286;DHT22;2665;53.112;7.358;2023-06-22T17:08:03;20.90;1.00
5286;DHT22;2665;53.112;7.358;2023-06-22T17:10:30;20.90;1.00
5286;DHT22;2665;53.112;7.358;2023-06-22T17:12:57;20.90;1.00
5286;DHT22;2665;53.112;7.358;2023-06-22T17:15:22;20.90;1.00
5286;DHT22;2665;53.112;7.358;2023-06-22T17:17:51;20.90;1.00
5286;DHT22;2665;53.112;7.358;2023-06-22T17:20:17;20.90;1.00
5286;DHT22;2665;53.112;7.358;2023-06-22T17:22:45;20.90;1.00
5286;DHT22;2665;53.112;7.358;2023-06-22T17:25:10;20.80;1.00
5286;DHT22;2665;53.112;7.358;2023-06-22T17:27:38;20.80;1.00
5286;DHT22;2665;53.112;7.358;2023-06-22T17:30:09;20.80;1.00
5286;DHT22;2665;53.112;7.358;2023-06-22T17:32:35;20.70;1.00
5286;DHT22;2665;53.112;7.358;2023-06-22T17:35:04;20.70;1.00
5286;DHT22;2665;53.112;7.358;2023-06-22T17:37:38;20.70;1.00
5286;DHT22;2665;53.112;7.358;2023-06-22T17:40:14;20.60;1.00
5286;DHT22;2665;53.112;7.358;2023-06-22T17:42:40;20.60;1.00
5286;DHT22;2665;53.112;7.358;2023-06-22T17:45:19;20.60;1.00
5286;DHT22;2665;53.112;7.358;2023-06-22T17:47:52;20.50;1.00
5286;DHT22;2665;53.112;7.358;2023-06-22T17:50:22;20.50;1.00
5286;DHT22;2665;53.112;7.358;2023-06-22T17:52:52;20.50;1.00
5286;DHT22;2665;53.112;7.358;2023-06-22T17:55:21;20.40;1.00
5286;DHT22;2665;53.112;7.358;2023-06-22T17:57:54;20.40;1.00
5286;DHT22;2665;53.112;7.358;2023-06-22T18:00:20;20.40;1.00
5286;DHT22;2665;53.112;7.358;2023-06-22T18:02:45;20.30;1.00
5286;DHT22;2665;53.112;7.358;2023-06-22T18:05:12;20.30;1.00
5286;DHT22;2665;53.112;7.358;2023-06-22T18:07:38;20.30;1.00
5286;DHT22;2665;53.112;7.358;2023-06-22T18:10:08;20.20;1.00
5286;DHT22;2665;53.112;7.358;2023-06-22T18:12:36;20.10;1.00
5286;DHT22;2665;53.112;7.358;2023-06-22T18:15:02;20.00;1.00
5286;DHT22;2665;53.112;7.358;2023-06-22T18:17:29;19.90;1.00
5286;DHT22;2665;53.112;7.358;2023-06-22T18:19:56;19.80;1.00
5286;DHT22;2665;53.112;7.358;2023-06-22T18:22:22;19.70;1.00
5286;DHT22;2665;53.112;7.358;2023-06-22T18:24:52;19.60;1.00
5286;DHT22;2665;53.112;7.358;2023-06-22T18:27:18;19.50;1.00
5286;DHT22;2665;53.112;7.358;2023-06-22T18:29:44;19.40;1.00
5286;DHT22;2665;53.112;7.358;2023-06-22T18:32:13;19.30;1.00
5286;DHT22;2665;53.112;7.358;2023-06-22T18:34:39;19.20;1.00
5286;DHT22;2665;53.112;7.358;2023-06-22T18:37:11;19.20;1.00
5286;DHT22;2665;53.112;7.358;2023-06-22T18:39:39;19.10;1.00
5286;DHT22;2665;53.112;7.358;2023-06-22T18:42:08;19.00;1.00
5286;DHT22;2665;53.112;7.358;2023-06-22T18:44:34;18.90;32.20
5286;DHT22;2665;53.112;7.358;2023-06-22T18:47:02;18.70;99.90
